This is the latest recevied weather packets stored in our database for station/object IU7URP-17. If no packets are shown the sender has not sent any weather packets the latest 10 day(s).
| Time | Temp. | Humidity | Pressure | Rain* | Wind** | Luminosity | Snow |
|---|---|---|---|---|---|---|---|
| 1788066630 | 25.56° C | 93% | 1017.3 hPa | - | - | - | - |
| 1788065426 | 25° C | 94% | 1017.4 hPa | - | - | - | - |
| 1788064222 | 24.44° C | 94% | 1017.4 hPa | - | - | - | - |
| 1788063018 | 24.44° C | 94% | 1017.3 hPa | - | - | - | - |
| 1788061814 | 24.44° C | 94% | 1017.1 hPa | - | - | - | - |
| 1788060610 | 24.44° C | 94% | 1017 hPa | - | - | - | - |
| 1788059406 | 24.44° C | 94% | 1016.9 hPa | - | - | - | - |
| 1788058202 | 24.44° C | 95% | 1016.9 hPa | - | - | - | - |
| 1788056998 | 24.44° C | 94% | 1017 hPa | - | - | - | - |
| 1788055793 | 24.44° C | 94% | 1016.9 hPa | - | - | - | - |
| 1788053385 | 24.44° C | 93% | 1016.7 hPa | - | - | - | - |
| 1788052181 | 24.44° C | 94% | 1016.6 hPa | - | - | - | - |
| 1788050977 | 25° C | 93% | 1016.6 hPa | - | - | - | - |
| 1788049773 | 25.56° C | 93% | 1016.6 hPa | - | - | - | - |
| 1788048569 | 25° C | 93% | 1016.5 hPa | - | - | - | - |
| 1788047365 | 25° C | 92% | 1016.4 hPa | - | - | - | - |
| 1788046161 | 25° C | 91% | 1016.5 hPa | - | - | - | - |
| 1788044957 | 25.56° C | 90% | 1016.6 hPa | - | - | - | - |
| 1788043753 | 25.56° C | 87% | 1016.6 hPa | - | - | - | - |
| 1788042548 | 26.11° C | 83% | 1016.6 hPa | - | - | - | - |
| 1788041845 | 26.11° C | 81% | 1016.4 hPa | - | - | - | - |
| 1788041343 | 26.11° C | 81% | 1016.4 hPa | - | - | - | - |
| 1788040139 | 26.67° C | 79% | 1016.5 hPa | - | - | - | - |
| 1788038935 | 27.22° C | 76% | 1016.6 hPa | - | - | - | - |
| 1788037731 | 26.67° C | 79% | 1016.5 hPa | - | - | - | - |
* Rain since midnight (hover to see other rain measurements)
** Current wind speed in m/s (hover to see current wind gust speed)